sensor_id;sensor_type;location;lat;lon;timestamp;pressure;altitude;pressure_sealevel;temperature;humidity
53689;BME280;39583;54.682;30.662;2022-09-09T07:15:32;100628.81;;;10.16;71.34
53689;BME280;39583;54.682;30.662;2022-09-09T07:18:03;100622.56;;;10.45;71.23
53689;BME280;39583;54.682;30.662;2022-09-09T07:20:29;100626.75;;;10.69;70.54
53689;BME280;39583;54.682;30.662;2022-09-09T07:22:56;100629.19;;;10.85;70.10
53689;BME280;39583;54.682;30.662;2022-09-09T07:25:22;100620.19;;;11.00;69.85
53689;BME280;39583;54.682;30.662;2022-09-09T07:27:49;100624.44;;;11.15;69.61
53689;BME280;39583;54.682;30.662;2022-09-09T07:30:15;100624.94;;;11.26;68.75
53689;BME280;39583;54.682;30.662;2022-09-09T07:32:42;100630.63;;;11.37;68.06
53689;BME280;39583;54.682;30.662;2022-09-09T07:35:08;100623.63;;;11.43;66.96
53689;BME280;39583;54.682;30.662;2022-09-09T07:37:36;100631.22;;;11.61;66.35
53689;BME280;39583;54.682;30.662;2022-09-09T07:40:04;100631.28;;;11.74;66.61
53689;BME280;39583;54.682;30.662;2022-09-09T07:42:31;100622.84;;;11.84;66.16
53689;BME280;39583;54.682;30.662;2022-09-09T07:44:57;100633.06;;;11.88;65.62
53689;BME280;39583;54.682;30.662;2022-09-09T07:47:24;100627.03;;;11.86;64.94
53689;BME280;39583;54.682;30.662;2022-09-09T07:49:50;100624.97;;;11.95;64.77
53689;BME280;39583;54.682;30.662;2022-09-09T07:52:22;100631.88;;;12.04;64.26
53689;BME280;39583;54.682;30.662;2022-09-09T07:54:53;100619.03;;;12.06;63.89
53689;BME280;39583;54.682;30.662;2022-09-09T07:57:20;100628.84;;;12.20;63.45
53689;BME280;39583;54.682;30.662;2022-09-09T07:59:47;100631.38;;;12.28;62.59
53689;BME280;39583;54.682;30.662;2022-09-09T08:02:13;100635.16;;;12.40;62.81
53689;BME280;39583;54.682;30.662;2022-09-09T08:04:40;100634.97;;;12.62;61.94
53689;BME280;39583;54.682;30.662;2022-09-09T08:07:06;100631.25;;;12.69;61.67
53689;BME280;39583;54.682;30.662;2022-09-09T08:09:39;100640.22;;;12.77;60.71
53689;BME280;39583;54.682;30.662;2022-09-09T08:12:16;100638.13;;;12.72;60.00
53689;BME280;39583;54.682;30.662;2022-09-09T08:14:42;100637.50;;;12.63;60.09
53689;BME280;39583;54.682;30.662;2022-09-09T08:17:08;100639.38;;;12.69;60.10
53689;BME280;39583;54.682;30.662;2022-09-09T08:19:35;100638.13;;;12.72;59.55
53689;BME280;39583;54.682;30.662;2022-09-09T08:22:03;100631.09;;;12.78;59.24
53689;BME280;39583;54.682;30.662;2022-09-09T08:24:32;100637.34;;;12.91;58.74
53689;BME280;39583;54.682;30.662;2022-09-09T08:26:58;100626.94;;;12.95;58.28
53689;BME280;39583;54.682;30.662;2022-09-09T08:29:24;100628.41;;;13.04;57.94
53689;BME280;39583;54.682;30.662;2022-09-09T08:31:55;100635.91;;;13.22;57.18
53689;BME280;39583;54.682;30.662;2022-09-09T08:34:24;100626.53;;;13.18;56.48
53689;BME280;39583;54.682;30.662;2022-09-09T08:36:53;100639.03;;;13.32;56.20
53689;BME280;39583;54.682;30.662;2022-09-09T08:39:24;100634.63;;;13.51;55.75
53689;BME280;39583;54.682;30.662;2022-09-09T08:50:37;100625.50;;;14.16;53.44
53689;BME280;39583;54.682;30.662;2022-09-09T08:53:23;100627.06;;;14.44;53.26
53689;BME280;39583;54.682;30.662;2022-09-09T08:55:54;100625.88;;;14.71;52.70
53689;BME280;39583;54.682;30.662;2022-09-09T08:58:51;100609.97;;;15.07;51.79
53689;BME280;39583;54.682;30.662;2022-09-09T09:04:07;100604.03;;;15.41;50.79
53689;BME280;39583;54.682;30.662;2022-09-09T09:12:20;100621.63;;;15.07;48.01
53689;BME280;39583;54.682;30.662;2022-09-09T09:14:48;100624.28;;;14.89;48.21
53689;BME280;39583;54.682;30.662;2022-09-09T09:17:20;100616.56;;;14.61;48.08
53689;BME280;39583;54.682;30.662;2022-09-09T09:19:49;100614.09;;;14.53;47.87
53689;BME280;39583;54.682;30.662;2022-09-09T09:22:41;100610.53;;;14.59;47.58
53689;BME280;39583;54.682;30.662;2022-09-09T09:25:27;100615.81;;;14.40;47.17
53689;BME280;39583;54.682;30.662;2022-09-09T09:30:44;100606.50;;;14.68;47.60
53689;BME280;39583;54.682;30.662;2022-09-09T09:35:49;100605.31;;;14.89;46.96
53689;BME280;39583;54.682;30.662;2022-09-09T09:38:23;100603.22;;;15.16;46.62
53689;BME280;39583;54.682;30.662;2022-09-09T09:40:56;100593.94;;;15.23;44.42
53689;BME280;39583;54.682;30.662;2022-09-09T09:43:33;100595.56;;;15.31;44.54
53689;BME280;39583;54.682;30.662;2022-09-09T09:46:04;100576.34;;;15.32;44.40
53689;BME280;39583;54.682;30.662;2022-09-09T09:48:31;100597.47;;;15.49;44.84
53689;BME280;39583;54.682;30.662;2022-09-09T09:50:59;100595.75;;;15.54;44.82
53689;BME280;39583;54.682;30.662;2022-09-09T09:53:31;100600.34;;;15.54;45.11
53689;BME280;39583;54.682;30.662;2022-09-09T09:56:09;100612.66;;;15.75;45.36
53689;BME280;39583;54.682;30.662;2022-09-09T09:58:50;100607.41;;;15.98;44.73
53689;BME280;39583;54.682;30.662;2022-09-09T10:01:27;100604.69;;;15.98;43.88
53689;BME280;39583;54.682;30.662;2022-09-09T10:04:03;100600.25;;;16.04;44.20
53689;BME280;39583;54.682;30.662;2022-09-09T10:06:40;100597.66;;;16.09;43.13
53689;BME280;39583;54.682;30.662;2022-09-09T10:09:28;100594.00;;;16.33;43.17
53689;BME280;39583;54.682;30.662;2022-09-09T10:12:33;100591.22;;;16.51;42.87
53689;BME280;39583;54.682;30.662;2022-09-09T10:23:03;100591.13;;;15.80;43.96
53689;BME280;39583;54.682;30.662;2022-09-09T10:34:52;100586.28;;;15.63;41.85
53689;BME280;39583;54.682;30.662;2022-09-09T10:48:12;100584.19;;;15.41;41.59
53689;BME280;39583;54.682;30.662;2022-09-09T10:56:20;100558.66;;;15.05;41.01
53689;BME280;39583;54.682;30.662;2022-09-09T10:59:00;100587.91;;;15.21;41.17
53689;BME280;39583;54.682;30.662;2022-09-09T11:01:41;100580.19;;;15.25;41.33
53689;BME280;39583;54.682;30.662;2022-09-09T11:04:17;100577.47;;;15.25;41.42
53689;BME280;39583;54.682;30.662;2022-09-09T11:06:54;100566.75;;;15.12;41.47
53689;BME280;39583;54.682;30.662;2022-09-09T11:09:25;100565.59;;;15.01;41.94
53689;BME280;39583;54.682;30.662;2022-09-09T11:11:54;100554.50;;;15.02;41.88
53689;BME280;39583;54.682;30.662;2022-09-09T11:14:54;100565.97;;;15.23;41.77
53689;BME280;39583;54.682;30.662;2022-09-09T11:17:26;100568.69;;;15.23;41.32
53689;BME280;39583;54.682;30.662;2022-09-09T11:19:55;100563.44;;;15.28;41.77
53689;BME280;39583;54.682;30.662;2022-09-09T11:22:37;100554.03;;;15.30;41.30
53689;BME280;39583;54.682;30.662;2022-09-09T11:25:19;100552.91;;;15.38;41.49
53689;BME280;39583;54.682;30.662;2022-09-09T11:38:52;100550.19;;;15.38;41.22
53689;BME280;39583;54.682;30.662;2022-09-09T11:41:21;100545.06;;;15.30;41.22
53689;BME280;39583;54.682;30.662;2022-09-09T11:43:51;100546.72;;;15.31;41.08
53689;BME280;39583;54.682;30.662;2022-09-09T11:46:22;100539.47;;;15.25;40.88
53689;BME280;39583;54.682;30.662;2022-09-09T11:49:05;100550.25;;;15.31;40.52
53689;BME280;39583;54.682;30.662;2022-09-09T11:51:33;100539.09;;;15.21;40.58
53689;BME280;39583;54.682;30.662;2022-09-09T11:54:26;100544.09;;;15.24;40.73
53689;BME280;39583;54.682;30.662;2022-09-09T11:56:49;100551.31;;;15.30;41.19
53689;BME280;39583;54.682;30.662;2022-09-09T11:59:28;100544.59;;;15.33;41.07
53689;BME280;39583;54.682;30.662;2022-09-09T12:02:13;100541.16;;;15.44;41.52
53689;BME280;39583;54.682;30.662;2022-09-09T12:05:28;100535.84;;;15.49;40.51
53689;BME280;39583;54.682;30.662;2022-09-09T12:07:46;100530.53;;;15.43;40.11
53689;BME280;39583;54.682;30.662;2022-09-09T12:10:30;100541.75;;;15.46;40.25
53689;BME280;39583;54.682;30.662;2022-09-09T12:13:27;100530.97;;;15.40;40.42
53689;BME280;39583;54.682;30.662;2022-09-09T12:15:58;100538.72;;;15.36;40.36
53689;BME280;39583;54.682;30.662;2022-09-09T12:18:32;100529.38;;;15.32;39.99
53689;BME280;39583;54.682;30.662;2022-09-09T12:23:48;100529.84;;;15.47;40.63
53689;BME280;39583;54.682;30.662;2022-09-09T12:34:11;100531.13;;;15.45;40.41
53689;BME280;39583;54.682;30.662;2022-09-09T12:36:41;100534.44;;;15.47;39.90
53689;BME280;39583;54.682;30.662;2022-09-09T12:39:27;100529.59;;;15.49;40.54
53689;BME280;39583;54.682;30.662;2022-09-09T12:41:55;100518.03;;;15.60;39.66
53689;BME280;39583;54.682;30.662;2022-09-09T12:44:25;100526.81;;;15.55;39.20
53689;BME280;39583;54.682;30.662;2022-09-09T12:46:55;100524.47;;;15.59;39.73
53689;BME280;39583;54.682;30.662;2022-09-09T12:49:34;100523.66;;;15.58;39.66
53689;BME280;39583;54.682;30.662;2022-09-09T12:52:35;100532.19;;;15.62;39.95
53689;BME280;39583;54.682;30.662;2022-09-09T12:55:05;100522.25;;;15.74;39.97
53689;BME280;39583;54.682;30.662;2022-09-09T12:57:39;100505.13;;;15.74;40.23
53689;BME280;39583;54.682;30.662;2022-09-09T13:00:18;100523.13;;;15.86;40.10
53689;BME280;39583;54.682;30.662;2022-09-09T13:05:22;100525.72;;;15.81;40.20
53689;BME280;39583;54.682;30.662;2022-09-09T13:07:50;100512.59;;;15.78;39.87
53689;BME280;39583;54.682;30.662;2022-09-09T13:10:28;100510.25;;;15.82;40.28
53689;BME280;39583;54.682;30.662;2022-09-09T13:12:55;100507.91;;;15.85;40.64
53689;BME280;39583;54.682;30.662;2022-09-09T13:15:24;100512.66;;;15.90;40.09
53689;BME280;39583;54.682;30.662;2022-09-09T13:17:56;100516.75;;;15.81;40.09
53689;BME280;39583;54.682;30.662;2022-09-09T13:20:24;100516.13;;;15.79;39.47
53689;BME280;39583;54.682;30.662;2022-09-09T13:22:52;100494.25;;;15.74;39.71
53689;BME280;39583;54.682;30.662;2022-09-09T13:28:23;100517.81;;;15.80;39.78
53689;BME280;39583;54.682;30.662;2022-09-09T13:31:01;100502.00;;;15.88;40.14
53689;BME280;39583;54.682;30.662;2022-09-09T13:33:36;100508.06;;;15.90;39.42
53689;BME280;39583;54.682;30.662;2022-09-09T13:36:10;100505.66;;;15.82;39.50
53689;BME280;39583;54.682;30.662;2022-09-09T13:38:53;100507.84;;;15.74;39.55
53689;BME280;39583;54.682;30.662;2022-09-09T13:41:46;100512.06;;;15.70;39.37
53689;BME280;39583;54.682;30.662;2022-09-09T13:44:25;100507.94;;;15.67;39.28
53689;BME280;39583;54.682;30.662;2022-09-09T13:47:31;100507.09;;;15.67;39.66
53689;BME280;39583;54.682;30.662;2022-09-09T13:49:58;100504.06;;;15.75;39.61
53689;BME280;39583;54.682;30.662;2022-09-09T13:52:35;100503.69;;;15.71;39.45
53689;BME280;39583;54.682;30.662;2022-09-09T13:55:01;100509.72;;;15.73;39.94
53689;BME280;39583;54.682;30.662;2022-09-09T13:57:27;100505.50;;;15.77;40.07
53689;BME280;39583;54.682;30.662;2022-09-09T13:59:54;100507.22;;;15.90;40.14
53689;BME280;39583;54.682;30.662;2022-09-09T14:02:23;100504.28;;;15.91;39.99
53689;BME280;39583;54.682;30.662;2022-09-09T14:04:50;100507.13;;;15.97;39.90
53689;BME280;39583;54.682;30.662;2022-09-09T14:07:21;100494.59;;;15.96;40.28
53689;BME280;39583;54.682;30.662;2022-09-09T14:09:47;100497.44;;;16.01;40.27
53689;BME280;39583;54.682;30.662;2022-09-09T14:12:17;100493.06;;;16.00;40.17
53689;BME280;39583;54.682;30.662;2022-09-09T14:14:44;100489.53;;;15.99;40.35
53689;BME280;39583;54.682;30.662;2022-09-09T14:17:10;100495.78;;;16.00;40.09
53689;BME280;39583;54.682;30.662;2022-09-09T14:19:37;100489.03;;;15.90;39.79
53689;BME280;39583;54.682;30.662;2022-09-09T14:22:03;100488.75;;;15.80;39.74
53689;BME280;39583;54.682;30.662;2022-09-09T14:24:29;100475.72;;;15.71;39.89
53689;BME280;39583;54.682;30.662;2022-09-09T14:26:55;100472.41;;;15.69;39.97
53689;BME280;39583;54.682;30.662;2022-09-09T14:29:22;100467.44;;;15.66;40.40
53689;BME280;39583;54.682;30.662;2022-09-09T14:31:48;100466.75;;;15.70;40.36
53689;BME280;39583;54.682;30.662;2022-09-09T14:34:14;100466.88;;;15.57;40.57
53689;BME280;39583;54.682;30.662;2022-09-09T14:36:41;100473.06;;;15.46;40.58
53689;BME280;39583;54.682;30.662;2022-09-09T14:39:07;100472.56;;;15.37;40.91
53689;BME280;39583;54.682;30.662;2022-09-09T14:41:33;100472.16;;;15.33;40.68
53689;BME280;39583;54.682;30.662;2022-09-09T14:44:00;100474.50;;;15.30;41.08
53689;BME280;39583;54.682;30.662;2022-09-09T14:46:26;100479.25;;;15.34;41.47
53689;BME280;39583;54.682;30.662;2022-09-09T14:48:52;100478.88;;;15.31;41.31
53689;BME280;39583;54.682;30.662;2022-09-09T14:51:21;100482.66;;;15.30;41.44
53689;BME280;39583;54.682;30.662;2022-09-09T14:53:51;100472.91;;;15.22;41.81
53689;BME280;39583;54.682;30.662;2022-09-09T14:56:21;100479.25;;;15.16;41.73
53689;BME280;39583;54.682;30.662;2022-09-09T14:58:49;100476.69;;;15.03;41.68
53689;BME280;39583;54.682;30.662;2022-09-09T15:01:19;100485.66;;;15.03;42.15
53689;BME280;39583;54.682;30.662;2022-09-09T15:03:54;100489.03;;;14.99;42.00
53689;BME280;39583;54.682;30.662;2022-09-09T15:06:22;100490.97;;;14.92;41.67
53689;BME280;39583;54.682;30.662;2022-09-09T15:08:51;100494.19;;;14.82;42.15
53689;BME280;39583;54.682;30.662;2022-09-09T15:11:19;100496.59;;;14.72;42.35
53689;BME280;39583;54.682;30.662;2022-09-09T15:13:46;100482.13;;;14.53;43.02
53689;BME280;39583;54.682;30.662;2022-09-09T15:16:15;100496.69;;;14.59;43.24
53689;BME280;39583;54.682;30.662;2022-09-09T15:18:42;100490.88;;;14.55;43.11
53689;BME280;39583;54.682;30.662;2022-09-09T15:21:12;100492.97;;;14.53;43.06
53689;BME280;39583;54.682;30.662;2022-09-09T15:23:40;100495.31;;;14.50;43.53
53689;BME280;39583;54.682;30.662;2022-09-09T15:26:06;100493.88;;;14.40;43.29
53689;BME280;39583;54.682;30.662;2022-09-09T15:28:35;100482.47;;;14.32;43.53
53689;BME280;39583;54.682;30.662;2022-09-09T15:31:23;100489.66;;;14.20;44.00
53689;BME280;39583;54.682;30.662;2022-09-09T15:33:55;100494.50;;;14.11;44.00
53689;BME280;39583;54.682;30.662;2022-09-09T15:38:54;100496.91;;;13.87;44.92
53689;BME280;39583;54.682;30.662;2022-09-09T15:41:22;100494.03;;;13.76;45.23
53689;BME280;39583;54.682;30.662;2022-09-09T15:43:51;100495.75;;;13.64;45.71
53689;BME280;39583;54.682;30.662;2022-09-09T15:46:25;100493.72;;;13.52;46.04
53689;BME280;39583;54.682;30.662;2022-09-09T15:48:54;100494.19;;;13.36;46.03
53689;BME280;39583;54.682;30.662;2022-09-09T15:51:22;100502.13;;;13.24;46.52
53689;BME280;39583;54.682;30.662;2022-09-09T15:53:54;100489.47;;;13.05;46.95
53689;BME280;39583;54.682;30.662;2022-09-09T15:56:22;100489.06;;;12.88;47.85
53689;BME280;39583;54.682;30.662;2022-09-09T15:58:49;100495.31;;;12.69;48.40
53689;BME280;39583;54.682;30.662;2022-09-09T16:01:15;100485.97;;;12.52;48.90
53689;BME280;39583;54.682;30.662;2022-09-09T16:03:42;100480.97;;;12.29;49.38
53689;BME280;39583;54.682;30.662;2022-09-09T16:06:13;100485.94;;;12.19;49.67
53689;BME280;39583;54.682;30.662;2022-09-09T16:08:41;100488.00;;;12.03;50.21
53689;BME280;39583;54.682;30.662;2022-09-09T16:11:16;100479.66;;;11.85;50.47
53689;BME280;39583;54.682;30.662;2022-09-09T16:13:43;100488.50;;;11.72;50.87
53689;BME280;39583;54.682;30.662;2022-09-09T16:16:11;100491.97;;;11.60;51.13
53689;BME280;39583;54.682;30.662;2022-09-09T16:18:43;100496.66;;;11.44;51.76
53689;BME280;39583;54.682;30.662;2022-09-09T16:21:15;100495.56;;;11.32;51.86
53689;BME280;39583;54.682;30.662;2022-09-09T16:23:41;100495.25;;;11.14;52.44
53689;BME280;39583;54.682;30.662;2022-09-09T16:26:10;100505.72;;;10.96;52.92
53689;BME280;39583;54.682;30.662;2022-09-09T16:28:39;100480.00;;;10.65;53.21
53689;BME280;39583;54.682;30.662;2022-09-09T16:31:07;100504.19;;;10.58;54.04
53689;BME280;39583;54.682;30.662;2022-09-09T16:33:33;100494.78;;;10.26;54.77
53689;BME280;39583;54.682;30.662;2022-09-09T16:36:11;100511.09;;;10.03;55.62
53689;BME280;39583;54.682;30.662;2022-09-09T16:38:38;100506.69;;;9.81;56.11
53689;BME280;39583;54.682;30.662;2022-09-09T16:41:06;100494.88;;;9.61;56.36
53689;BME280;39583;54.682;30.662;2022-09-09T16:43:33;100507.97;;;9.64;56.81
53689;BME280;39583;54.682;30.662;2022-09-09T16:46:00;100507.84;;;9.57;56.84
53689;BME280;39583;54.682;30.662;2022-09-09T16:48:31;100487.09;;;9.36;57.05
53689;BME280;39583;54.682;30.662;2022-09-09T16:51:13;100514.34;;;9.48;56.91
53689;BME280;39583;54.682;30.662;2022-09-09T16:53:40;100519.72;;;9.48;56.95
53689;BME280;39583;54.682;30.662;2022-09-09T16:56:10;100523.25;;;9.49;57.10
53689;BME280;39583;54.682;30.662;2022-09-09T16:58:37;100526.78;;;9.49;56.95
53689;BME280;39583;54.682;30.662;2022-09-09T17:01:04;100506.22;;;9.41;57.06
53689;BME280;39583;54.682;30.662;2022-09-09T17:03:31;100519.09;;;9.46;56.97
53689;BME280;39583;54.682;30.662;2022-09-09T17:05:58;100530.66;;;9.46;57.18
53689;BME280;39583;54.682;30.662;2022-09-09T17:08:31;100520.28;;;9.43;57.35
53689;BME280;39583;54.682;30.662;2022-09-09T17:10:57;100510.47;;;9.36;57.39
53689;BME280;39583;54.682;30.662;2022-09-09T17:13:24;100521.41;;;9.34;57.42
53689;BME280;39583;54.682;30.662;2022-09-09T17:15:51;100523.00;;;9.29;57.69
53689;BME280;39583;54.682;30.662;2022-09-09T17:18:17;100521.59;;;9.18;57.70
53689;BME280;39583;54.682;30.662;2022-09-09T17:20:43;100532.72;;;9.15;58.00
53689;BME280;39583;54.682;30.662;2022-09-09T17:23:11;100524.38;;;9.10;57.99
53689;BME280;39583;54.682;30.662;2022-09-09T17:25:41;100527.34;;;9.00;58.36
53689;BME280;39583;54.682;30.662;2022-09-09T17:28:07;100536.22;;;9.01;58.49
53689;BME280;39583;54.682;30.662;2022-09-09T17:30:34;100537.06;;;9.01;58.40
53689;BME280;39583;54.682;30.662;2022-09-09T17:33:03;100537.25;;;9.00;58.49
53689;BME280;39583;54.682;30.662;2022-09-09T17:35:30;100542.44;;;9.01;58.56
53689;BME280;39583;54.682;30.662;2022-09-09T17:37:57;100532.53;;;9.02;58.76
53689;BME280;39583;54.682;30.662;2022-09-09T17:40:23;100530.56;;;8.96;58.62
53689;BME280;39583;54.682;30.662;2022-09-09T17:42:50;100532.41;;;8.95;58.72
53689;BME280;39583;54.682;30.662;2022-09-09T17:45:16;100533.63;;;8.93;58.75
53689;BME280;39583;54.682;30.662;2022-09-09T17:47:42;100539.00;;;8.93;58.95
53689;BME280;39583;54.682;30.662;2022-09-09T17:50:10;100537.31;;;8.92;58.91
53689;BME280;39583;54.682;30.662;2022-09-09T17:52:39;100544.09;;;8.88;59.15
53689;BME280;39583;54.682;30.662;2022-09-09T17:55:07;100535.72;;;8.82;59.39
53689;BME280;39583;54.682;30.662;2022-09-09T17:57:35;100537.75;;;8.80;59.49
53689;BME280;39583;54.682;30.662;2022-09-09T18:00:03;100539.97;;;8.77;59.61
53689;BME280;39583;54.682;30.662;2022-09-09T18:02:37;100540.88;;;8.69;59.86
53689;BME280;39583;54.682;30.662;2022-09-09T18:05:04;100543.47;;;8.63;59.88
53689;BME280;39583;54.682;30.662;2022-09-09T18:07:31;100537.59;;;8.59;60.20
53689;BME280;39583;54.682;30.662;2022-09-09T18:09:57;100545.19;;;8.55;60.27
53689;BME280;39583;54.682;30.662;2022-09-09T18:12:23;100540.84;;;8.54;60.38
53689;BME280;39583;54.682;30.662;2022-09-09T18:14:49;100542.69;;;8.54;60.59
53689;BME280;39583;54.682;30.662;2022-09-09T18:17:16;100550.47;;;8.49;60.70
53689;BME280;39583;54.682;30.662;2022-09-09T18:19:43;100540.78;;;8.40;61.00
53689;BME280;39583;54.682;30.662;2022-09-09T18:22:09;100539.66;;;8.34;61.02
53689;BME280;39583;54.682;30.662;2022-09-09T18:24:35;100535.16;;;8.26;61.42
53689;BME280;39583;54.682;30.662;2022-09-09T18:27:01;100527.28;;;8.25;61.69
53689;BME280;39583;54.682;30.662;2022-09-09T18:29:28;100525.66;;;8.16;61.41
53689;BME280;39583;54.682;30.662;2022-09-09T18:31:56;100534.19;;;8.19;61.64
53689;BME280;39583;54.682;30.662;2022-09-09T18:34:25;100536.53;;;8.22;61.71
53689;BME280;39583;54.682;30.662;2022-09-09T18:36:53;100535.69;;;8.22;61.87
